createdAt,value
2022-08-17T00:00:43.100Z,18.45
2022-08-17T00:03:23.067Z,18.43
2022-08-17T00:05:54.914Z,18.44
2022-08-17T00:08:32.066Z,18.41
2022-08-17T00:11:01.669Z,18.32
2022-08-17T00:13:34.340Z,18.28
2022-08-17T00:16:06.024Z,18.14
2022-08-17T00:18:57.452Z,18.29
2022-08-17T00:21:25.477Z,18.23
2022-08-17T00:23:54.564Z,18.28
2022-08-17T00:26:43.578Z,18.22
2022-08-17T00:29:19.638Z,18.14
2022-08-17T00:31:48.393Z,18.10
2022-08-17T00:34:16.779Z,18.10
2022-08-17T00:36:44.933Z,18.18
2022-08-17T00:39:13.413Z,18.35
2022-08-17T00:41:42.442Z,18.36
2022-08-17T00:44:12.294Z,18.11
2022-08-17T00:46:44.332Z,17.90
2022-08-17T00:49:14.306Z,17.97
2022-08-17T00:51:46.596Z,17.85
2022-08-17T00:54:19.906Z,17.86
2022-08-17T00:56:51.323Z,17.81
2022-08-17T00:59:23.108Z,17.89
2022-08-17T01:01:53.468Z,17.80
2022-08-17T01:04:23.563Z,17.90
2022-08-17T01:06:52.725Z,18.06
2022-08-17T01:09:21.983Z,18.14
2022-08-17T01:11:52.390Z,18.27
2022-08-17T01:14:21.572Z,18.15
2022-08-17T01:16:51.322Z,18.35
2022-08-17T01:19:24.736Z,18.04
2022-08-17T01:22:08.216Z,18.03
2022-08-17T01:24:38.977Z,18.21
2022-08-17T01:27:10.297Z,18.10
2022-08-17T01:29:42.296Z,17.96
2022-08-17T01:32:11.123Z,17.74
2022-08-17T01:34:43.704Z,17.81
2022-08-17T01:37:20.389Z,17.70
2022-08-17T01:39:54.257Z,17.51
2022-08-17T01:42:26.266Z,17.47
2022-08-17T01:44:59.290Z,17.79
2022-08-17T01:47:27.458Z,17.53
2022-08-17T01:49:57.746Z,18.05
2022-08-17T01:52:25.928Z,17.93
2022-08-17T01:54:56.051Z,17.91
2022-08-17T01:57:23.991Z,17.93
2022-08-17T01:59:52.271Z,18.18
2022-08-17T02:02:30.557Z,18.24
2022-08-17T02:05:00.370Z,18.20
2022-08-17T02:07:29.009Z,18.24
2022-08-17T02:09:58.521Z,18.15
2022-08-17T02:12:39.191Z,18.15
2022-08-17T02:15:09.397Z,18.28
2022-08-17T02:17:40.581Z,18.16
2022-08-17T02:20:11.266Z,18.32
2022-08-17T02:22:42.044Z,18.22
2022-08-17T02:25:14.126Z,18.23
2022-08-17T02:27:42.136Z,18.20
2022-08-17T02:31:01.909Z,18.18
2022-08-17T02:33:04.255Z,18.07
2022-08-17T02:35:34.538Z,18.03
2022-08-17T02:38:02.634Z,17.96
2022-08-17T02:40:35.781Z,17.87
2022-08-17T02:43:04.964Z,18.00
2022-08-17T02:45:33.891Z,17.80
2022-08-17T02:48:01.912Z,17.80
2022-08-17T02:50:30.483Z,17.60
2022-08-17T02:53:02.538Z,17.52
2022-08-17T02:55:34.632Z,17.43
2022-08-17T02:58:03.807Z,17.57
2022-08-17T03:00:35.022Z,17.61
2022-08-17T03:03:05.162Z,17.50
2022-08-17T03:05:35.022Z,17.40
2022-08-17T03:08:03.291Z,17.36
2022-08-17T03:10:33.217Z,17.38
2022-08-17T03:13:01.656Z,17.21
2022-08-17T03:15:32.206Z,17.34
2022-08-17T03:18:01.451Z,17.35
2022-08-17T03:20:32.979Z,17.28
2022-08-17T03:23:02.911Z,17.25
2022-08-17T03:25:35.686Z,17.38
2022-08-17T03:28:05.103Z,17.22
2022-08-17T03:30:33.830Z,17.23
2022-08-17T03:33:05.015Z,17.23
2022-08-17T03:35:36.441Z,17.19
2022-08-17T03:38:05.651Z,17.25
2022-08-17T03:40:57.135Z,17.20
2022-08-17T03:43:23.906Z,17.35
2022-08-17T03:46:28.809Z,17.29
2022-08-17T03:49:15.479Z,17.46
2022-08-17T03:52:00.851Z,17.37
2022-08-17T03:54:46.398Z,17.38
2022-08-17T03:57:16.385Z,17.35
2022-08-17T03:59:45.078Z,17.20
2022-08-17T04:02:18.480Z,17.16
2022-08-17T04:04:46.605Z,16.97
2022-08-17T04:07:15.685Z,17.21
2022-08-17T04:09:44.922Z,17.07
2022-08-17T04:12:13.597Z,16.92
2022-08-17T04:14:53.107Z,17.01
2022-08-17T04:17:24.609Z,17.10
2022-08-17T04:19:53.389Z,17.11
2022-08-17T04:22:32.068Z,17.08
2022-08-17T04:25:06.379Z,17.08
2022-08-17T04:27:34.701Z,17.23
2022-08-17T04:30:07.069Z,17.30
2022-08-17T04:33:04.769Z,17.34
2022-08-17T04:35:37.263Z,17.21
2022-08-17T04:38:05.372Z,17.30
2022-08-17T04:40:50.913Z,17.33
2022-08-17T04:43:21.615Z,17.36
2022-08-17T04:45:56.126Z,17.41
2022-08-17T04:48:29.727Z,17.52
2022-08-17T04:51:07.361Z,17.47
2022-08-17T04:53:35.541Z,17.57
2022-08-17T04:56:03.799Z,17.51
2022-08-17T04:58:31.824Z,17.44
2022-08-17T05:01:01.534Z,17.48
2022-08-17T05:03:31.088Z,17.50
2022-08-17T05:06:04.902Z,17.63
2022-08-17T05:08:32.920Z,17.66
2022-08-17T05:11:01.469Z,17.72
2022-08-17T05:13:30.711Z,17.76
2022-08-17T05:16:09.124Z,17.74
2022-08-17T05:18:39.648Z,17.77
2022-08-17T05:21:08.148Z,17.85
2022-08-17T05:26:42.259Z,17.81
2022-08-17T05:29:10.676Z,17.92
2022-08-17T05:31:40.227Z,18.09
2022-08-17T05:34:08.334Z,18.02
2022-08-17T05:36:42.798Z,18.12
2022-08-17T05:39:16.657Z,18.06
2022-08-17T05:41:48.252Z,18.03
2022-08-17T05:44:17.110Z,18.18
2022-08-17T05:46:50.126Z,18.10
2022-08-17T05:49:23.859Z,18.02
2022-08-17T05:52:10.752Z,18.14
2022-08-17T05:54:53.210Z,18.13
2022-08-17T05:57:47.473Z,18.19
2022-08-17T06:00:30.413Z,18.16
2022-08-17T06:03:16.892Z,18.34
2022-08-17T06:05:55.294Z,18.33
2022-08-17T06:08:33.301Z,18.21
2022-08-17T06:11:09.150Z,18.27
2022-08-17T06:13:51.065Z,18.45
2022-08-17T06:16:34.518Z,18.48
2022-08-17T06:19:14.245Z,18.54
2022-08-17T06:21:45.800Z,18.68
2022-08-17T06:24:24.857Z,18.53
2022-08-17T06:26:55.287Z,18.57
2022-08-17T06:29:39.827Z,18.54
2022-08-17T06:32:12.650Z,18.68
2022-08-17T06:34:44.374Z,18.74
2022-08-17T06:37:40.651Z,18.78
2022-08-17T06:40:29.085Z,18.81
2022-08-17T06:43:22.425Z,18.86
2022-08-17T06:45:58.606Z,18.83
2022-08-17T06:48:33.057Z,19.15
2022-08-17T06:51:08.723Z,19.07
2022-08-17T06:53:51.551Z,19.27
2022-08-17T06:56:54.362Z,19.12
2022-08-17T06:59:36.300Z,19.13
2022-08-17T07:02:52.458Z,19.31
2022-08-17T07:05:23.431Z,19.39
2022-08-17T07:08:03.951Z,19.51
2022-08-17T07:10:44.852Z,19.73
2022-08-17T07:13:21.249Z,19.75
2022-08-17T07:15:56.502Z,19.93
2022-08-17T07:18:27.611Z,20.26
2022-08-17T07:21:01.260Z,20.53
2022-08-17T07:23:37.838Z,20.72
2022-08-17T07:26:06.740Z,20.84
2022-08-17T07:28:36.833Z,20.90
2022-08-17T07:31:05.672Z,20.98
2022-08-17T07:33:36.813Z,21.28
2022-08-17T07:36:05.887Z,20.81
2022-08-17T07:38:36.167Z,20.90
2022-08-17T07:41:06.641Z,20.75
2022-08-17T07:43:37.765Z,20.34
2022-08-17T07:46:36.160Z,20.41
2022-08-17T07:49:23.827Z,20.48
2022-08-17T07:52:00.065Z,20.65
2022-08-17T07:54:48.369Z,20.45
2022-08-17T07:57:35.257Z,20.80
2022-08-17T08:00:23.799Z,20.80
2022-08-17T08:03:13.284Z,20.68
2022-08-17T08:05:51.111Z,20.87
2022-08-17T08:08:29.125Z,21.01
2022-08-17T08:11:30.672Z,21.31
2022-08-17T08:14:21.649Z,21.61
2022-08-17T08:17:00.941Z,21.55
2022-08-17T08:19:31.456Z,21.26
2022-08-17T08:22:06.828Z,21.32
2022-08-17T08:24:51.962Z,21.17
2022-08-17T08:27:32.797Z,21.43
2022-08-17T08:30:06.307Z,21.43
2022-08-17T08:32:50.391Z,21.66
2022-08-17T08:35:26.757Z,21.65
2022-08-17T08:38:03.176Z,21.65
2022-08-17T08:40:44.652Z,21.99
2022-08-17T08:43:24.434Z,22.52
2022-08-17T08:45:59.119Z,22.79
2022-08-17T08:48:57.840Z,22.88
2022-08-17T08:51:36.649Z,22.86
2022-08-17T08:54:15.185Z,22.72
2022-08-17T08:57:21.588Z,22.15
2022-08-17T08:59:58.222Z,22.33
2022-08-17T09:02:53.124Z,22.15
2022-08-17T09:05:32.370Z,22.29
2022-08-17T09:08:08.046Z,22.53
2022-08-17T09:11:00.380Z,22.61
2022-08-17T09:13:36.940Z,23.21
2022-08-17T09:16:16.408Z,23.59
2022-08-17T09:19:02.862Z,23.25
2022-08-17T09:21:48.423Z,23.35
2022-08-17T09:24:24.041Z,23.26
2022-08-17T09:26:58.980Z,23.29
2022-08-17T09:29:30.522Z,23.33
2022-08-17T09:32:03.766Z,23.40
2022-08-17T09:34:38.033Z,22.87
2022-08-17T09:37:23.218Z,22.95
2022-08-17T09:40:06.407Z,22.92
2022-08-17T09:42:41.187Z,22.87
2022-08-17T09:45:31.987Z,23.04
2022-08-17T09:48:07.290Z,22.80
2022-08-17T09:51:03.224Z,22.68
2022-08-17T09:53:38.097Z,22.68
2022-08-17T09:56:18.606Z,22.62
2022-08-17T09:59:10.192Z,22.48
2022-08-17T10:01:44.809Z,22.85
2022-08-17T10:04:33.288Z,22.93
2022-08-17T10:07:08.298Z,22.73
2022-08-17T10:09:57.966Z,22.85
2022-08-17T10:12:38.950Z,22.90
2022-08-17T10:15:27.882Z,22.92
2022-08-17T10:18:15.274Z,22.76
2022-08-17T10:20:50.947Z,22.71
2022-08-17T10:23:43.965Z,22.97
2022-08-17T10:26:18.541Z,23.09
2022-08-17T10:28:53.548Z,23.45
2022-08-17T10:31:36.257Z,23.64
2022-08-17T10:34:34.169Z,23.70
2022-08-17T10:37:35.257Z,24.05
2022-08-17T10:40:29.929Z,23.87
2022-08-17T10:43:05.860Z,24.47
2022-08-17T10:46:10.432Z,24.49
2022-08-17T10:48:42.613Z,24.84
2022-08-17T10:51:13.631Z,26.04
2022-08-17T10:54:12.347Z,26.27
2022-08-17T10:56:57.162Z,25.77
2022-08-17T11:00:18.524Z,25.91
2022-08-17T11:02:52.337Z,25.60
2022-08-17T11:05:53.947Z,26.27
2022-08-17T11:08:54.317Z,25.98
2022-08-17T11:11:53.749Z,25.58
2022-08-17T11:14:43.227Z,25.48
2022-08-17T11:17:26.469Z,24.96
2022-08-17T11:20:23.775Z,25.43
2022-08-17T11:23:12.104Z,26.05
2022-08-17T11:25:43.755Z,26.78
2022-08-17T11:31:41.801Z,25.98
2022-08-17T11:34:20.158Z,25.25
2022-08-17T11:37:45.898Z,25.18
2022-08-17T11:40:34.840Z,25.02
2022-08-17T11:43:25.327Z,24.49
2022-08-17T11:46:18.247Z,24.84
2022-08-17T11:49:17.105Z,24.82
2022-08-17T11:52:16.137Z,25.69
2022-08-17T11:54:46.447Z,25.90
2022-08-17T11:57:51.255Z,25.67
2022-08-17T12:00:49.400Z,24.80
2022-08-17T12:03:53.940Z,25.19
2022-08-17T12:06:35.907Z,25.02
2022-08-17T12:09:15.046Z,24.85
2022-08-17T12:11:58.700Z,24.66
2022-08-17T12:15:08.455Z,24.93
2022-08-17T12:17:52.228Z,25.00
2022-08-17T12:20:24.113Z,24.75
2022-08-17T12:23:01.391Z,24.61
2022-08-17T12:25:37.494Z,24.65
2022-08-17T12:28:20.527Z,24.60
2022-08-17T12:30:52.045Z,24.75
2022-08-17T12:33:28.068Z,24.97
2022-08-17T12:36:07.746Z,24.86
2022-08-17T12:38:38.251Z,24.73
2022-08-17T12:41:22.343Z,24.95
2022-08-17T12:43:58.702Z,24.90
2022-08-17T12:46:27.063Z,24.50
2022-08-17T12:48:59.778Z,24.49
2022-08-17T12:51:30.270Z,24.77
2022-08-17T12:53:58.980Z,24.60
2022-08-17T12:56:27.559Z,24.53
2022-08-17T12:59:03.891Z,24.49
2022-08-17T13:01:53.576Z,24.19
2022-08-17T13:04:21.843Z,24.03
2022-08-17T13:06:52.723Z,24.29
2022-08-17T13:09:35.680Z,24.06
2022-08-17T13:12:09.190Z,24.11
2022-08-17T13:14:41.469Z,24.31
2022-08-17T13:17:13.486Z,24.49
2022-08-17T13:19:51.872Z,24.55
2022-08-17T13:22:27.771Z,24.21
2022-08-17T13:25:08.747Z,24.09
2022-08-17T13:27:42.593Z,24.26
2022-08-17T13:30:20.886Z,24.73
2022-08-17T13:32:49.018Z,24.75
2022-08-17T13:35:40.093Z,24.74
2022-08-17T13:38:14.601Z,24.58
2022-08-17T13:40:53.318Z,24.63
2022-08-17T13:43:46.427Z,24.36
2022-08-17T13:46:21.312Z,24.25
2022-08-17T13:48:59.849Z,23.91
2022-08-17T13:51:35.369Z,23.76
2022-08-17T13:54:21.033Z,23.50
2022-08-17T13:57:04.139Z,23.48
2022-08-17T13:59:54.804Z,23.41
2022-08-17T14:02:27.580Z,23.48
2022-08-17T14:04:58.547Z,23.46
2022-08-17T14:07:38.641Z,23.12
2022-08-17T14:10:13.274Z,23.20
2022-08-17T14:12:42.788Z,23.03
2022-08-17T14:15:13.708Z,22.90
2022-08-17T14:17:42.646Z,22.73
2022-08-17T14:20:13.759Z,22.65
2022-08-17T14:22:46.293Z,22.45
2022-08-17T14:25:18.702Z,22.46
2022-08-17T14:27:53.663Z,22.36
2022-08-17T14:30:24.654Z,22.30
2022-08-17T14:32:54.465Z,22.30
2022-08-17T14:35:24.997Z,22.19
2022-08-17T14:37:54.373Z,22.24
2022-08-17T14:40:25.403Z,21.95
2022-08-17T14:42:57.907Z,21.94
2022-08-17T14:45:29.839Z,21.94
2022-08-17T14:48:00.927Z,21.85
2022-08-17T14:50:31.868Z,21.75
2022-08-17T14:53:01.385Z,21.68
2022-08-17T14:55:31.282Z,21.75
2022-08-17T14:57:59.835Z,21.67
2022-08-17T15:00:28.705Z,21.61
2022-08-17T15:02:59.075Z,21.53
2022-08-17T15:05:30.606Z,21.50
2022-08-17T15:07:58.968Z,21.34
2022-08-17T15:10:27.830Z,21.20
2022-08-17T15:12:57.420Z,20.93
2022-08-17T15:15:25.901Z,20.73
2022-08-17T15:17:54.014Z,20.59
2022-08-17T15:20:24.899Z,20.52
2022-08-17T15:22:55.770Z,20.37
2022-08-17T15:25:28.701Z,20.36
2022-08-17T15:27:58.394Z,20.27
2022-08-17T15:30:27.028Z,20.27
2022-08-17T15:32:58.643Z,19.99
2022-08-17T15:35:32.460Z,20.04
2022-08-17T15:38:07.990Z,20.03
2022-08-17T15:40:43.724Z,19.95
2022-08-17T15:43:17.029Z,19.93
2022-08-17T15:45:52.499Z,19.82
2022-08-17T15:48:41.508Z,19.77
2022-08-17T15:51:11.686Z,19.77
2022-08-17T15:53:40.486Z,19.84
2022-08-17T15:56:08.820Z,19.80
2022-08-17T15:58:44.959Z,19.81
2022-08-17T16:01:18.768Z,19.75
2022-08-17T16:04:26.938Z,19.70
2022-08-17T16:06:56.456Z,19.74
2022-08-17T16:09:24.260Z,19.71
2022-08-17T16:12:01.009Z,19.66
2022-08-17T16:14:35.065Z,19.66
2022-08-17T16:17:03.596Z,19.76
2022-08-17T16:19:32.517Z,19.77
2022-08-17T16:22:00.379Z,19.78
2022-08-17T16:24:41.653Z,19.64
2022-08-17T16:27:17.465Z,19.66
2022-08-17T16:29:52.058Z,19.51
2022-08-17T16:32:31.812Z,19.52
2022-08-17T16:35:03.081Z,19.55
2022-08-17T16:37:31.175Z,19.53
2022-08-17T16:40:02.371Z,19.44
2022-08-17T16:42:33.381Z,19.48
2022-08-17T16:45:06.703Z,19.47
2022-08-17T16:47:34.826Z,19.38
2022-08-17T16:50:04.496Z,19.27
2022-08-17T16:52:33.576Z,19.28
2022-08-17T16:55:02.768Z,19.24
2022-08-17T16:57:30.947Z,19.22
2022-08-17T16:59:59.409Z,19.25
2022-08-17T17:02:32.204Z,19.13
2022-08-17T17:05:06.716Z,19.13
2022-08-17T17:07:54.833Z,19.07
2022-08-17T17:10:25.788Z,19.03
2022-08-17T17:13:01.934Z,18.99
2022-08-17T17:15:51.658Z,18.97
2022-08-17T17:18:24.286Z,18.88
2022-08-17T17:20:56.849Z,18.86
2022-08-17T17:23:44.640Z,18.80
2022-08-17T17:26:46.628Z,18.73
2022-08-17T17:29:28.640Z,18.71
2022-08-17T17:32:21.443Z,18.66
2022-08-17T17:34:54.704Z,18.68
2022-08-17T17:37:28.395Z,18.63
2022-08-17T17:40:00.485Z,18.65
2022-08-17T17:42:32.261Z,18.69
2022-08-17T17:45:16.894Z,18.60
2022-08-17T17:47:45.939Z,18.68
2022-08-17T17:50:17.886Z,18.57
2022-08-17T17:52:51.409Z,18.58
2022-08-17T17:55:45.135Z,18.51
2022-08-17T17:58:33.613Z,18.53
2022-08-17T18:01:19.274Z,18.46
2022-08-17T18:04:02.766Z,18.38
2022-08-17T18:06:47.659Z,18.42
2022-08-17T18:09:32.789Z,18.34
2022-08-17T18:12:12.996Z,18.30
2022-08-17T18:15:02.235Z,18.35
2022-08-17T18:17:31.090Z,18.29
2022-08-17T18:19:58.933Z,18.36
2022-08-17T18:22:28.657Z,18.27
2022-08-17T18:24:58.018Z,18.24
2022-08-17T18:27:33.369Z,18.23
2022-08-17T18:30:22.341Z,18.18
2022-08-17T18:32:50.207Z,18.18
2022-08-17T18:35:30.144Z,18.23
2022-08-17T18:38:20.431Z,18.18
2022-08-17T18:40:59.155Z,18.14
2022-08-17T18:43:36.470Z,18.10
2022-08-17T18:46:28.896Z,18.07
2022-08-17T18:48:59.773Z,18.05
2022-08-17T18:51:40.538Z,18.16
2022-08-17T18:54:18.522Z,18.04
2022-08-17T18:56:52.128Z,18.11
2022-08-17T18:59:30.250Z,18.15
2022-08-17T19:02:32.492Z,18.10
2022-08-17T19:05:11.643Z,18.02
2022-08-17T19:07:41.787Z,18.10
2022-08-17T19:10:22.378Z,17.98
2022-08-17T19:13:00.322Z,17.93
2022-08-17T19:15:34.129Z,17.94
2022-08-17T19:18:06.835Z,17.88
2022-08-17T19:20:39.014Z,17.72
2022-08-17T19:23:19.778Z,17.81
2022-08-17T19:25:52.697Z,17.77
2022-08-17T19:28:24.581Z,17.71
2022-08-17T19:30:57.957Z,17.71
2022-08-17T19:33:27.257Z,17.70
2022-08-17T19:36:21.465Z,17.62
2022-08-17T19:38:59.770Z,17.63
2022-08-17T19:41:39.718Z,17.57
2022-08-17T19:44:32.257Z,17.62
2022-08-17T19:47:06.713Z,17.61
2022-08-17T19:49:48.088Z,17.66
2022-08-17T19:52:43.581Z,17.77
2022-08-17T19:55:20.781Z,17.71
2022-08-17T19:58:03.813Z,17.73
2022-08-17T20:00:34.801Z,17.72
2022-08-17T20:03:09.298Z,17.92
2022-08-17T20:06:08.437Z,18.04
2022-08-17T20:08:35.525Z,17.90
2022-08-17T20:11:09.672Z,17.84
2022-08-17T20:13:42.938Z,17.90
2022-08-17T20:16:12.303Z,17.86
2022-08-17T20:18:50.930Z,17.94
2022-08-17T20:21:25.409Z,17.94
2022-08-17T20:24:00.869Z,17.98
2022-08-17T20:26:49.094Z,18.03
2022-08-17T20:29:37.788Z,17.99
2022-08-17T20:32:23.360Z,18.07
2022-08-17T20:35:03.988Z,18.02
2022-08-17T20:37:33.899Z,18.07
2022-08-17T20:40:27.838Z,18.10
2022-08-17T20:42:58.458Z,18.16
2022-08-17T20:46:06.373Z,18.18
2022-08-17T20:48:40.531Z,18.18
2022-08-17T20:51:28.367Z,18.12
2022-08-17T20:54:08.326Z,18.11
2022-08-17T20:56:57.491Z,18.10
2022-08-17T20:59:57.580Z,18.15
2022-08-17T21:02:27.994Z,18.17
2022-08-17T21:05:07.978Z,18.36
2022-08-17T21:07:58.887Z,18.39
2022-08-17T21:10:38.072Z,18.26
2022-08-17T21:13:32.727Z,18.28
2022-08-17T21:16:08.529Z,18.26
2022-08-17T21:18:45.570Z,18.27
2022-08-17T21:21:25.980Z,18.26
2022-08-17T21:24:16.225Z,18.27
2022-08-17T21:26:52.949Z,18.29
2022-08-17T21:29:30.969Z,18.33
2022-08-17T21:32:24.364Z,18.24
2022-08-17T21:35:31.098Z,18.28
2022-08-17T21:38:05.178Z,18.34
2022-08-17T21:40:35.097Z,18.31
2022-08-17T21:43:18.030Z,18.24
2022-08-17T21:45:56.039Z,18.38
2022-08-17T21:48:27.210Z,18.24
2022-08-17T21:51:17.632Z,18.19
2022-08-17T21:53:50.333Z,18.20
2022-08-17T21:56:25.745Z,18.23
2022-08-17T21:59:00.670Z,18.23
2022-08-17T22:01:30.596Z,18.24
2022-08-17T22:04:03.363Z,18.35
2022-08-17T22:06:37.312Z,18.33
2022-08-17T22:09:16.978Z,18.40
2022-08-17T22:12:10.341Z,18.35
2022-08-17T22:14:52.374Z,18.35
2022-08-17T22:17:24.355Z,18.25
2022-08-17T22:19:56.296Z,18.24
2022-08-17T22:22:56.199Z,18.25
2022-08-17T22:25:27.289Z,18.36
2022-08-17T22:27:57.805Z,18.40
2022-08-17T22:30:33.338Z,18.31
2022-08-17T22:33:02.909Z,18.31
2022-08-17T22:35:35.571Z,18.28
2022-08-17T22:38:26.157Z,18.26
2022-08-17T22:41:13.536Z,18.26
2022-08-17T22:43:44.833Z,18.15
2022-08-17T22:46:14.957Z,18.18
2022-08-17T22:48:50.246Z,18.24
2022-08-17T22:51:23.142Z,18.20
2022-08-17T22:54:12.039Z,18.14
2022-08-17T22:57:07.177Z,18.14
2022-08-17T22:59:46.429Z,18.15
2022-08-17T23:02:19.471Z,18.14
2022-08-17T23:04:51.312Z,18.09
2022-08-17T23:07:20.152Z,18.18
2022-08-17T23:09:48.111Z,18.20
2022-08-17T23:12:23.581Z,18.10
2022-08-17T23:14:58.471Z,18.12
2022-08-17T23:17:27.536Z,18.12
2022-08-17T23:19:56.987Z,18.19
2022-08-17T23:22:25.352Z,18.12
2022-08-17T23:24:53.185Z,18.10
2022-08-17T23:27:23.130Z,18.12
2022-08-17T23:29:50.968Z,18.06
2022-08-17T23:32:19.608Z,18.02
2022-08-17T23:34:49.472Z,18.05
2022-08-17T23:37:18.596Z,18.01
2022-08-17T23:39:46.616Z,18.05
2022-08-17T23:42:21.630Z,17.99
2022-08-17T23:44:50.989Z,18.00
2022-08-17T23:47:18.870Z,18.01
2022-08-17T23:49:46.741Z,18.08
2022-08-17T23:52:17.069Z,18.02
2022-08-17T23:54:47.351Z,18.04
2022-08-17T23:57:17.427Z,18.07
2022-08-17T23:59:46.085Z,18.09
